createdAt,value
2018-02-07T00:02:27.190Z,100824.88
2018-02-07T00:04:54.855Z,100825.96
2018-02-07T00:07:22.531Z,100827.91
2018-02-07T00:09:50.085Z,100832.23
2018-02-07T00:12:17.665Z,100831.49
2018-02-07T00:14:45.233Z,100827.56
2018-02-07T00:17:12.825Z,100823.31
2018-02-07T00:19:40.396Z,100827.20
2018-02-07T00:22:07.953Z,100822.88
2018-02-07T00:24:35.578Z,100824.77
2018-02-07T00:27:03.126Z,100826.32
2018-02-07T00:29:30.676Z,100818.06
2018-02-07T00:31:58.358Z,100821.50
2018-02-07T00:34:25.934Z,100821.41
2018-02-07T00:36:53.476Z,100823.05
2018-02-07T00:39:21.030Z,100824.24
2018-02-07T00:41:48.603Z,100826.83
2018-02-07T00:44:16.576Z,100826.81
2018-02-07T00:46:44.114Z,100826.58
2018-02-07T00:49:11.682Z,100828.41
2018-02-07T00:51:39.243Z,100828.02
2018-02-07T00:54:06.755Z,100828.06
2018-02-07T00:56:34.722Z,100827.22
2018-02-07T00:59:02.298Z,100825.38
2018-02-07T01:01:29.863Z,100826.27
2018-02-07T01:03:57.635Z,100821.00
2018-02-07T01:06:25.529Z,100823.03
2018-02-07T01:08:53.072Z,100825.56
2018-02-07T01:11:20.678Z,100820.95
2018-02-07T01:13:48.336Z,100816.07
2018-02-07T01:16:15.880Z,100824.23
2018-02-07T01:18:43.442Z,100822.59
2018-02-07T01:21:10.976Z,100823.29
2018-02-07T01:23:38.570Z,100832.16
2018-02-07T01:26:06.115Z,100825.33
2018-02-07T01:28:33.691Z,100824.54
2018-02-07T01:31:01.275Z,100829.09
2018-02-07T01:33:28.860Z,100833.17
2018-02-07T01:35:56.402Z,100834.02
2018-02-07T01:38:23.955Z,100836.51
2018-02-07T01:40:51.535Z,100839.84
2018-02-07T01:43:19.104Z,100842.17
2018-02-07T01:45:46.618Z,100840.44
2018-02-07T01:48:14.577Z,100843.61
2018-02-07T01:50:42.134Z,100840.09
2018-02-07T01:53:09.677Z,100830.89
2018-02-07T01:55:37.252Z,100835.52
2018-02-07T01:58:04.776Z,100842.62
2018-02-07T02:00:32.356Z,100841.05
2018-02-07T02:02:59.904Z,100840.93
2018-02-07T02:05:27.807Z,100838.80
2018-02-07T02:07:55.375Z,100839.34
2018-02-07T02:10:22.932Z,100834.35
2018-02-07T02:12:54.338Z,100835.50
2018-02-07T02:15:21.873Z,100840.27
2018-02-07T02:17:49.419Z,100835.81
2018-02-07T02:20:17.005Z,100834.00
2018-02-07T02:22:44.557Z,100826.70
2018-02-07T02:25:12.079Z,100831.95
2018-02-07T02:27:39.682Z,100837.14
2018-02-07T02:30:07.323Z,100833.86
2018-02-07T02:32:34.875Z,100840.56
2018-02-07T02:35:02.433Z,100841.70
2018-02-07T02:37:29.987Z,100847.26
2018-02-07T02:39:57.558Z,100839.28
2018-02-07T02:42:25.090Z,100833.87
2018-02-07T02:44:52.645Z,100839.05
2018-02-07T02:47:20.207Z,100840.41
2018-02-07T02:49:47.780Z,100836.38
2018-02-07T02:52:15.350Z,100839.30
2018-02-07T02:54:42.932Z,100842.97
2018-02-07T02:57:10.504Z,100846.71
2018-02-07T02:59:38.042Z,100851.59
2018-02-07T03:02:05.646Z,100850.45
2018-02-07T03:04:33.216Z,100848.23
2018-02-07T03:07:00.770Z,100845.25
2018-02-07T03:09:28.331Z,100851.03
2018-02-07T03:11:55.911Z,100852.02
2018-02-07T03:14:23.515Z,100850.42
2018-02-07T03:16:51.081Z,100860.41
2018-02-07T03:19:18.652Z,100855.50
2018-02-07T03:21:46.219Z,100859.48
2018-02-07T03:24:13.738Z,100857.46
2018-02-07T03:26:41.319Z,100857.78
2018-02-07T03:29:08.946Z,100859.73
2018-02-07T03:31:36.473Z,100868.05
2018-02-07T03:34:04.080Z,100872.85
2018-02-07T03:36:31.626Z,100869.53
2018-02-07T03:38:59.143Z,100879.98
2018-02-07T03:41:26.692Z,100877.67
2018-02-07T03:43:54.264Z,100876.97
2018-02-07T03:46:21.854Z,100876.82
2018-02-07T03:48:49.478Z,100874.59
2018-02-07T03:51:17.029Z,100876.09
2018-02-07T03:53:44.576Z,100871.48
2018-02-07T03:56:12.255Z,100879.66
2018-02-07T03:58:39.858Z,100872.50
2018-02-07T04:01:07.466Z,100870.38
2018-02-07T04:03:35.010Z,100875.33
2018-02-07T04:06:02.648Z,100869.92
2018-02-07T04:08:30.274Z,100871.77
2018-02-07T04:10:57.823Z,100871.19
2018-02-07T04:13:25.344Z,100877.70
2018-02-07T04:15:52.891Z,100879.45
2018-02-07T04:18:20.660Z,100879.09
2018-02-07T04:20:48.608Z,100887.96
2018-02-07T04:23:16.210Z,100887.75
2018-02-07T04:25:43.737Z,100896.48
2018-02-07T04:28:11.724Z,100900.34
2018-02-07T04:30:39.275Z,100897.47
2018-02-07T04:33:06.799Z,100898.16
2018-02-07T04:35:34.402Z,100898.37
2018-02-07T04:38:01.951Z,100896.92
2018-02-07T04:40:29.499Z,100891.19
2018-02-07T04:42:57.058Z,100899.97
2018-02-07T04:45:24.603Z,100903.62
2018-02-07T04:47:52.211Z,100892.92
2018-02-07T04:50:19.780Z,100903.11
2018-02-07T04:52:47.316Z,100902.31
2018-02-07T04:55:14.925Z,100899.59
2018-02-07T04:57:42.494Z,100895.16
2018-02-07T05:00:10.119Z,100893.41
2018-02-07T05:02:37.670Z,100891.72
2018-02-07T05:05:05.227Z,100886.86
2018-02-07T05:07:32.835Z,100884.91
2018-02-07T05:10:00.403Z,100882.13
2018-02-07T05:12:27.964Z,100882.92
2018-02-07T05:14:55.617Z,100886.67
2018-02-07T05:17:23.165Z,100889.53
2018-02-07T05:19:51.073Z,100887.34
2018-02-07T05:22:18.640Z,100888.03
2018-02-07T05:24:46.212Z,100882.77
2018-02-07T05:27:13.792Z,100878.14
2018-02-07T05:29:41.343Z,100878.66
2018-02-07T05:32:08.881Z,100879.69
2018-02-07T05:34:36.435Z,100881.52
2018-02-07T05:37:03.974Z,100885.60
2018-02-07T05:39:31.641Z,100882.80
2018-02-07T05:41:59.209Z,100888.59
2018-02-07T05:44:26.750Z,100886.89
2018-02-07T05:46:55.012Z,100893.41
2018-02-07T05:49:22.607Z,100894.64
2018-02-07T05:51:50.174Z,100906.36
2018-02-07T05:54:19.212Z,100907.69
2018-02-07T05:56:46.803Z,100903.87
2018-02-07T05:59:14.349Z,100909.25
2018-02-07T06:01:41.904Z,100911.97
2018-02-07T06:04:09.530Z,100917.14
2018-02-07T06:06:37.060Z,100925.92
2018-02-07T06:09:04.633Z,100924.61
2018-02-07T06:11:32.352Z,100920.09
2018-02-07T06:13:59.898Z,100916.52
2018-02-07T06:16:27.474Z,100921.28
2018-02-07T06:18:55.128Z,100927.59
2018-02-07T06:21:22.692Z,100917.16
2018-02-07T06:23:50.243Z,100921.30
2018-02-07T06:26:17.788Z,100918.90
2018-02-07T06:28:45.804Z,100917.28
2018-02-07T06:31:13.321Z,100914.92
2018-02-07T06:33:40.840Z,100921.16
2018-02-07T06:36:08.564Z,100922.30
2018-02-07T06:38:36.103Z,100922.59
2018-02-07T06:41:03.639Z,100929.56
2018-02-07T06:43:31.183Z,100932.29
2018-02-07T06:45:58.731Z,100938.36
2018-02-07T06:48:26.286Z,100938.69
2018-02-07T06:50:53.808Z,100938.08
2018-02-07T06:53:21.402Z,100943.67
2018-02-07T06:55:48.922Z,100943.14
2018-02-07T06:58:16.532Z,100948.53
2018-02-07T07:00:44.983Z,100950.88
2018-02-07T07:03:12.525Z,100953.48
2018-02-07T07:05:40.080Z,100955.58
2018-02-07T07:08:07.600Z,100962.34
2018-02-07T07:10:35.210Z,100961.91
2018-02-07T07:13:02.783Z,100970.72
2018-02-07T07:15:30.395Z,100975.81
2018-02-07T07:17:57.953Z,100973.08
2018-02-07T07:20:25.855Z,100982.53
2018-02-07T07:22:53.391Z,100977.56
2018-02-07T07:25:20.938Z,100968.73
2018-02-07T07:27:48.517Z,100979.92
2018-02-07T07:30:16.082Z,100980.13
2018-02-07T07:32:44.039Z,100988.59
2018-02-07T07:35:11.555Z,100987.83
2018-02-07T07:37:39.137Z,100982.86
2018-02-07T07:40:06.731Z,100984.95
2018-02-07T07:42:34.249Z,100990.98
2018-02-07T07:45:01.791Z,100998.40
2018-02-07T07:47:29.690Z,101000.98
2018-02-07T07:49:57.258Z,101008.45
2018-02-07T07:52:24.770Z,101013.84
2018-02-07T07:54:52.363Z,101009.73
2018-02-07T07:57:19.887Z,101013.40
2018-02-07T07:59:47.399Z,101017.45
2018-02-07T08:02:14.995Z,101018.84
2018-02-07T08:04:42.565Z,101026.50
2018-02-07T08:07:10.092Z,101019.41
2018-02-07T08:09:37.693Z,101014.76
2018-02-07T08:12:05.221Z,101022.99
2018-02-07T08:14:32.770Z,101018.70
2018-02-07T08:17:00.348Z,101020.41
2018-02-07T08:19:27.896Z,101031.87
2018-02-07T08:21:55.454Z,101033.06
2018-02-07T08:24:23.025Z,101031.53
2018-02-07T08:26:50.552Z,101031.13
2018-02-07T08:29:18.143Z,101026.89
2018-02-07T08:31:45.682Z,101029.87
2018-02-07T08:34:13.228Z,101029.03
2018-02-07T08:36:40.874Z,101035.77
2018-02-07T08:39:08.434Z,101038.25
2018-02-07T08:41:35.952Z,101040.94
2018-02-07T08:44:03.536Z,101043.08
2018-02-07T08:46:31.187Z,101039.75
2018-02-07T08:48:58.765Z,101050.17
2018-02-07T08:51:26.400Z,101043.33
2018-02-07T08:53:53.941Z,101044.58
2018-02-07T08:56:21.514Z,101030.97
2018-02-07T08:58:49.036Z,101036.30
2018-02-07T09:01:16.936Z,101044.56
2018-02-07T09:03:44.473Z,101043.21
2018-02-07T09:06:12.018Z,101043.16
2018-02-07T09:08:39.608Z,101039.41
2018-02-07T09:11:07.131Z,101042.30
2018-02-07T09:13:34.684Z,101038.34
2018-02-07T09:16:02.679Z,101044.41
2018-02-07T09:18:30.351Z,101052.03
2018-02-07T09:20:57.875Z,101046.72
2018-02-07T09:23:25.432Z,101053.70
2018-02-07T09:25:52.951Z,101049.88
2018-02-07T09:28:20.499Z,101054.27
2018-02-07T09:30:48.054Z,101052.14
2018-02-07T09:33:15.596Z,101053.11
2018-02-07T09:35:43.255Z,101050.24
2018-02-07T09:38:10.791Z,101054.99
2018-02-07T09:40:38.407Z,101065.41
2018-02-07T09:43:05.932Z,101064.58
2018-02-07T09:45:33.549Z,101070.20
2018-02-07T09:48:01.543Z,101072.30
2018-02-07T09:50:29.102Z,101075.97
2018-02-07T09:52:56.636Z,101072.42
2018-02-07T09:55:24.228Z,101071.30
2018-02-07T09:57:51.776Z,101075.17
2018-02-07T10:00:19.331Z,101075.10
2018-02-07T10:02:47.312Z,101071.16
2018-02-07T10:05:14.831Z,101077.98
2018-02-07T10:07:42.359Z,101077.11
2018-02-07T10:10:09.931Z,101081.70
2018-02-07T10:12:37.471Z,101082.05
2018-02-07T10:15:05.059Z,101086.42
2018-02-07T10:17:32.716Z,101088.84
2018-02-07T10:20:00.266Z,101092.28
2018-02-07T10:22:27.855Z,101102.39
2018-02-07T10:24:55.392Z,101100.62
2018-02-07T10:27:23.010Z,101102.38
2018-02-07T10:29:50.547Z,101100.57
2018-02-07T10:32:18.086Z,101095.25
2018-02-07T10:34:45.655Z,101092.78
2018-02-07T10:37:13.292Z,101081.90
2018-02-07T10:39:40.869Z,101086.62
2018-02-07T10:42:08.387Z,101085.23
2018-02-07T10:44:35.930Z,101092.13
2018-02-07T10:47:03.870Z,101097.14
2018-02-07T10:49:31.409Z,101097.52
2018-02-07T10:51:58.979Z,101100.66
2018-02-07T10:54:26.545Z,101096.12
2018-02-07T10:56:54.121Z,101098.97
2018-02-07T10:59:21.710Z,101103.38
2018-02-07T11:01:49.251Z,101099.27
2018-02-07T11:04:16.787Z,101102.47
2018-02-07T11:06:44.332Z,101112.20
2018-02-07T11:09:11.848Z,101111.20
2018-02-07T11:11:39.423Z,101114.39
2018-02-07T11:14:06.993Z,101114.80
2018-02-07T11:16:34.574Z,101117.41
2018-02-07T11:19:02.759Z,101116.72
2018-02-07T11:21:30.389Z,101111.90
2018-02-07T11:23:57.979Z,101105.80
2018-02-07T11:26:25.518Z,101115.21
2018-02-07T11:28:53.091Z,101112.09
2018-02-07T11:31:20.618Z,101113.98
2018-02-07T11:33:48.211Z,101115.39
2018-02-07T11:36:15.767Z,101118.09
2018-02-07T11:38:43.270Z,101104.50
2018-02-07T11:41:10.846Z,101103.88
2018-02-07T11:43:38.486Z,101106.10
2018-02-07T11:46:06.023Z,101099.79
2018-02-07T11:48:33.585Z,101097.79
2018-02-07T11:51:01.115Z,101099.99
2018-02-07T11:53:28.671Z,101099.67
2018-02-07T11:55:56.209Z,101101.28
2018-02-07T11:58:23.750Z,101093.05
2018-02-07T12:00:51.342Z,101103.54
2018-02-07T12:03:18.869Z,101102.02
2018-02-07T12:05:46.411Z,101103.52
2018-02-07T12:08:13.978Z,101105.03
2018-02-07T12:10:41.531Z,101104.23
2018-02-07T12:13:09.077Z,101109.34
2018-02-07T12:15:36.648Z,101113.83
2018-02-07T12:18:04.191Z,101110.03
2018-02-07T12:20:31.736Z,101111.52
2018-02-07T12:22:59.289Z,101120.13
2018-02-07T12:25:26.823Z,101123.24
2018-02-07T12:27:54.444Z,101122.95
2018-02-07T12:30:21.977Z,101115.53
2018-02-07T12:32:49.532Z,101109.44
2018-02-07T12:35:17.087Z,101113.54
2018-02-07T12:37:44.640Z,101110.13
2018-02-07T12:40:12.255Z,101110.03
2018-02-07T12:42:39.791Z,101115.53
2018-02-07T12:45:07.342Z,101110.72
2018-02-07T12:47:35.320Z,101108.22
2018-02-07T12:50:02.866Z,101111.52
2018-02-07T12:52:30.429Z,101113.98
2018-02-07T12:54:58.025Z,101114.39
2018-02-07T12:57:25.579Z,101109.60
2018-02-07T12:59:53.150Z,101104.20
2018-02-07T13:02:20.700Z,101111.76
2018-02-07T13:04:48.236Z,101107.50
2018-02-07T13:07:15.748Z,101101.13
2018-02-07T13:09:43.343Z,101095.08
2018-02-07T13:12:10.883Z,101087.84
2018-02-07T13:14:38.400Z,101088.28
2018-02-07T13:17:05.940Z,101098.23
2018-02-07T13:19:33.459Z,101093.93
2018-02-07T13:22:01.030Z,101091.06
2018-02-07T13:24:28.567Z,101090.16
2018-02-07T13:26:56.174Z,101083.61
2018-02-07T13:29:23.725Z,101087.72
2018-02-07T13:31:51.284Z,101102.33
2018-02-07T13:34:18.842Z,101097.08
2018-02-07T13:36:46.411Z,101097.91
2018-02-07T13:39:13.978Z,101103.73
2018-02-07T13:41:41.566Z,101105.51
2018-02-07T13:44:09.119Z,101099.72
2018-02-07T13:46:36.634Z,101097.25
2018-02-07T13:49:04.193Z,101104.89
2018-02-07T13:51:31.718Z,101106.19
2018-02-07T13:53:59.279Z,101109.61
2018-02-07T13:56:26.792Z,101101.38
2018-02-07T13:58:54.370Z,101112.89
2018-02-07T14:01:21.886Z,101104.94
2018-02-07T14:03:49.451Z,101112.47
2018-02-07T14:06:17.042Z,101104.03
2018-02-07T14:08:44.591Z,101109.02
2018-02-07T14:11:12.104Z,101108.58
2018-02-07T14:13:39.676Z,101099.17
2018-02-07T14:16:07.211Z,101103.23
2018-02-07T14:18:34.746Z,101103.20
2018-02-07T14:21:02.671Z,101095.66
2018-02-07T14:23:30.192Z,101090.38
2018-02-07T14:25:57.735Z,101097.60
2018-02-07T14:28:25.292Z,101098.33
2018-02-07T14:30:52.921Z,101095.55
2018-02-07T14:33:20.435Z,101100.94
2018-02-07T14:35:47.967Z,101099.45
2018-02-07T14:38:15.524Z,101098.21
2018-02-07T14:40:43.099Z,101097.64
2018-02-07T14:43:10.659Z,101088.23
2018-02-07T14:45:38.199Z,101085.56
2018-02-07T14:48:05.786Z,101085.17
2018-02-07T14:50:33.327Z,101088.97
2018-02-07T14:53:00.880Z,101085.73
2018-02-07T14:55:28.423Z,101091.67
2018-02-07T14:57:55.947Z,101092.30
2018-02-07T15:00:23.515Z,101081.98
2018-02-07T15:02:51.063Z,101080.75
2018-02-07T15:05:18.640Z,101082.66
2018-02-07T15:07:46.199Z,101078.36
2018-02-07T15:10:13.744Z,101075.97
2018-02-07T15:12:41.305Z,101070.58
2018-02-07T15:15:08.850Z,101064.86
2018-02-07T15:17:36.411Z,101075.11
2018-02-07T15:20:03.939Z,101074.28
2018-02-07T15:22:31.945Z,101078.04
2018-02-07T15:24:59.471Z,101070.12
2018-02-07T15:27:27.024Z,101067.33
2018-02-07T15:29:54.618Z,101070.55
2018-02-07T15:32:22.260Z,101075.06
2018-02-07T15:34:49.778Z,101073.05
2018-02-07T15:37:17.744Z,101071.74
2018-02-07T15:39:45.303Z,101073.79
2018-02-07T15:42:12.854Z,101076.02
2018-02-07T15:44:40.399Z,101073.28
2018-02-07T15:47:07.931Z,101070.02
2018-02-07T15:49:35.532Z,101073.83
2018-02-07T15:52:03.048Z,101074.52
2018-02-07T15:54:30.594Z,101071.94
2018-02-07T15:56:58.524Z,101078.45
2018-02-07T15:59:26.047Z,101081.45
2018-02-07T16:01:53.565Z,101087.76
2018-02-07T16:04:21.175Z,101089.18
2018-02-07T16:06:48.693Z,101080.25
2018-02-07T16:09:16.241Z,101083.47
2018-02-07T16:11:43.887Z,101080.84
2018-02-07T16:14:11.452Z,101089.62
2018-02-07T16:16:39.023Z,101085.23
2018-02-07T16:19:06.610Z,101083.59
2018-02-07T16:21:34.188Z,101088.45
2018-02-07T16:24:01.720Z,101086.49
2018-02-07T16:26:29.259Z,101088.23
2018-02-07T16:28:56.832Z,101090.34
2018-02-07T16:31:24.434Z,101101.33
2018-02-07T16:33:51.984Z,101098.39
2018-02-07T16:36:19.562Z,101095.75
2018-02-07T16:38:47.157Z,101091.91
2018-02-07T16:41:14.702Z,101106.09
2018-02-07T16:43:42.257Z,101107.40
2018-02-07T16:46:10.177Z,101114.59
2018-02-07T16:48:37.723Z,101111.97
2018-02-07T16:51:05.247Z,101111.06
2018-02-07T16:53:32.812Z,101113.75
2018-02-07T16:56:00.422Z,101115.00
2018-02-07T16:58:28.449Z,101117.63
2018-02-07T17:00:55.981Z,101121.86
2018-02-07T17:03:23.586Z,101112.01
2018-02-07T17:05:51.182Z,101116.92
2018-02-07T17:08:18.740Z,101117.19
2018-02-07T17:10:46.290Z,101122.32
2018-02-07T17:13:13.924Z,101128.05
2018-02-07T17:15:41.463Z,101129.52
2018-02-07T17:18:09.058Z,101129.47
2018-02-07T17:20:37.034Z,101139.57
2018-02-07T17:23:04.577Z,101140.23
2018-02-07T17:25:32.136Z,101146.25
2018-02-07T17:28:00.552Z,101141.52
2018-02-07T17:30:28.102Z,101147.80
2018-02-07T17:32:55.646Z,101148.81
2018-02-07T17:35:23.262Z,101154.66
2018-02-07T17:37:50.828Z,101158.72
2018-02-07T17:40:18.345Z,101161.55
2018-02-07T17:42:45.941Z,101157.90
2018-02-07T17:45:13.499Z,101162.09
2018-02-07T17:47:41.088Z,101158.73
2018-02-07T17:50:08.654Z,101165.36
2018-02-07T17:52:36.280Z,101170.48
2018-02-07T17:55:03.811Z,101171.86
2018-02-07T17:57:31.360Z,101182.19
2018-02-07T17:59:58.965Z,101180.61
2018-02-07T18:02:26.487Z,101185.30
2018-02-07T18:04:54.049Z,101181.52
2018-02-07T18:07:21.635Z,101178.71
2018-02-07T18:09:49.218Z,101184.91
2018-02-07T18:12:16.756Z,101191.76
2018-02-07T18:14:44.279Z,101197.42
2018-02-07T18:17:11.924Z,101200.00
2018-02-07T18:19:39.482Z,101201.15
2018-02-07T18:22:07.068Z,101204.50
2018-02-07T18:24:34.717Z,101206.42
2018-02-07T18:27:02.239Z,101210.76
2018-02-07T18:29:29.824Z,101213.52
2018-02-07T18:31:57.427Z,101217.16
2018-02-07T18:34:24.956Z,101215.69
2018-02-07T18:36:52.810Z,101215.02
2018-02-07T18:39:20.734Z,101211.28
2018-02-07T18:41:48.505Z,101212.81
2018-02-07T18:44:16.158Z,101221.64
2018-02-07T18:46:43.750Z,101214.98
2018-02-07T18:49:11.331Z,101217.71
2018-02-07T18:51:38.930Z,101212.70
2018-02-07T18:54:06.535Z,101219.06
2018-02-07T18:56:34.100Z,101214.04
2018-02-07T18:59:01.702Z,101217.71
2018-02-07T19:01:29.231Z,101219.30
2018-02-07T19:03:57.273Z,101220.77
2018-02-07T19:06:24.835Z,101219.91
2018-02-07T19:08:52.395Z,101225.19
2018-02-07T19:11:20.017Z,101230.76
2018-02-07T19:13:47.582Z,101226.77
2018-02-07T19:16:15.162Z,101230.03
2018-02-07T19:18:43.291Z,101231.84
2018-02-07T19:21:10.839Z,101230.84
2018-02-07T19:23:38.382Z,101238.20
2018-02-07T19:26:05.955Z,101238.12
2018-02-07T19:28:33.507Z,101232.52
2018-02-07T19:31:01.102Z,101233.73
2018-02-07T19:33:28.639Z,101235.35
2018-02-07T19:35:56.292Z,101240.78
2018-02-07T19:38:24.338Z,101236.30
2018-02-07T19:40:52.995Z,101233.41
2018-02-07T19:43:20.527Z,101231.36
2018-02-07T19:45:48.961Z,101229.13
2018-02-07T19:48:16.530Z,101234.20
2018-02-07T19:50:44.048Z,101228.50
2018-02-07T19:53:11.653Z,101232.28
2018-02-07T19:55:40.245Z,101232.60
2018-02-07T19:58:08.067Z,101227.21
2018-02-07T20:00:35.726Z,101228.65
2018-02-07T20:03:03.309Z,101235.50
2018-02-07T20:05:31.331Z,101236.64
2018-02-07T20:07:58.951Z,101239.86
2018-02-07T20:10:26.942Z,101237.30
2018-02-07T20:12:54.546Z,101235.34
2018-02-07T20:15:22.312Z,101241.40
2018-02-07T20:17:51.233Z,101234.63
2018-02-07T20:20:18.775Z,101238.58
2018-02-07T20:22:46.444Z,101242.92
2018-02-07T20:25:14.533Z,101237.37
2018-02-07T20:27:42.126Z,101245.02
2018-02-07T20:30:09.824Z,101247.44
2018-02-07T20:32:37.457Z,101250.09
2018-02-07T20:35:05.003Z,101249.61
2018-02-07T20:37:33.018Z,101244.23
2018-02-07T20:40:00.552Z,101248.40
2018-02-07T20:42:28.078Z,101253.39
2018-02-07T20:44:55.714Z,101245.51
2018-02-07T20:47:23.291Z,101244.07
2018-02-07T20:49:50.902Z,101239.05
2018-02-07T20:52:18.479Z,101237.27
2018-02-07T20:54:46.012Z,101249.95
2018-02-07T20:57:13.586Z,101247.77
2018-02-07T20:59:41.148Z,101237.84
2018-02-07T21:02:08.711Z,101240.91
2018-02-07T21:04:36.274Z,101246.46
2018-02-07T21:07:03.850Z,101249.28
2018-02-07T21:09:31.446Z,101252.33
2018-02-07T21:11:59.075Z,101257.59
2018-02-07T21:14:26.599Z,101252.80
2018-02-07T21:16:54.163Z,101256.38
2018-02-07T21:19:21.774Z,101266.89
2018-02-07T21:21:49.344Z,101262.28
2018-02-07T21:24:16.906Z,101264.70
2018-02-07T21:26:44.476Z,101270.07
2018-02-07T21:29:12.078Z,101269.20
2018-02-07T21:31:39.612Z,101269.80
2018-02-07T21:34:07.129Z,101268.81
2018-02-07T21:36:34.678Z,101273.31
2018-02-07T21:39:02.225Z,101271.74
2018-02-07T21:41:29.818Z,101267.70
2018-02-07T21:43:57.404Z,101263.31
2018-02-07T21:46:24.961Z,101266.42
2018-02-07T21:48:52.531Z,101258.75
2018-02-07T21:51:20.074Z,101266.88
2018-02-07T21:53:47.728Z,101273.59
2018-02-07T21:56:15.251Z,101279.50
2018-02-07T21:58:42.790Z,101280.67
2018-02-07T22:01:10.392Z,101287.56
2018-02-07T22:03:37.948Z,101285.28
2018-02-07T22:06:05.486Z,101285.38
2018-02-07T22:08:33.112Z,101297.79
2018-02-07T22:11:00.675Z,101292.45
2018-02-07T22:13:28.295Z,101285.69
2018-02-07T22:15:55.844Z,101287.77
2018-02-07T22:18:23.427Z,101287.77
2018-02-07T22:20:50.995Z,101283.09
2018-02-07T22:23:18.642Z,101283.30
2018-02-07T22:25:46.704Z,101285.72
2018-02-07T22:28:14.247Z,101288.77
2018-02-07T22:30:41.786Z,101286.45
2018-02-07T22:33:09.382Z,101291.95
2018-02-07T22:35:36.907Z,101291.50
2018-02-07T22:38:04.423Z,101283.84
2018-02-07T22:40:31.988Z,101287.44
2018-02-07T22:42:59.555Z,101286.26
2018-02-07T22:45:27.074Z,101287.41
2018-02-07T22:47:54.634Z,101288.94
2018-02-07T22:50:22.151Z,101290.73
2018-02-07T22:52:49.699Z,101291.41
2018-02-07T22:55:17.283Z,101297.06
2018-02-07T22:57:44.875Z,101292.31
2018-02-07T23:00:12.461Z,101291.22
2018-02-07T23:02:39.985Z,101287.30
2018-02-07T23:05:07.536Z,101300.21
2018-02-07T23:07:35.089Z,101301.59
2018-02-07T23:10:02.632Z,101298.45
2018-02-07T23:12:30.215Z,101299.64
2018-02-07T23:14:58.226Z,101296.64
2018-02-07T23:17:25.772Z,101301.02
2018-02-07T23:19:53.409Z,101302.41
2018-02-07T23:22:20.955Z,101299.27
2018-02-07T23:24:48.480Z,101298.86
2018-02-07T23:27:16.080Z,101292.88
2018-02-07T23:29:43.630Z,101300.11
2018-02-07T23:32:11.170Z,101289.45
2018-02-07T23:34:38.725Z,101290.94
2018-02-07T23:37:06.271Z,101292.62
2018-02-07T23:39:33.867Z,101293.61
2018-02-07T23:42:01.389Z,101293.39
2018-02-07T23:44:28.915Z,101290.31
2018-02-07T23:46:56.475Z,101291.27
2018-02-07T23:49:24.043Z,101284.14
2018-02-07T23:51:51.696Z,101285.95
2018-02-07T23:54:19.212Z,101274.67
2018-02-07T23:56:46.774Z,101274.95
2018-02-07T23:59:14.338Z,101275.64
